sensor_id;sensor_type;location;lat;lon;timestamp;temperature;humidity
19654;DHT22;9975;48.046;7.804;2023-11-19T06:54:50;11.70;99.90
19654;DHT22;9975;48.046;7.804;2023-11-19T06:57:16;12.50;99.90
19654;DHT22;9975;48.046;7.804;2023-11-19T06:59:42;12.50;99.90
19654;DHT22;9975;48.046;7.804;2023-11-19T07:02:08;12.50;99.90
19654;DHT22;9975;48.046;7.804;2023-11-19T07:04:34;12.60;99.90
19654;DHT22;9975;48.046;7.804;2023-11-19T07:06:59;12.60;99.90
19654;DHT22;9975;48.046;7.804;2023-11-19T07:09:26;12.60;99.90
19654;DHT22;9975;48.046;7.804;2023-11-19T07:11:51;12.60;99.90
19654;DHT22;9975;48.046;7.804;2023-11-19T07:14:18;12.60;99.90
19654;DHT22;9975;48.046;7.804;2023-11-19T07:16:44;12.60;99.90
19654;DHT22;9975;48.046;7.804;2023-11-19T07:19:10;12.60;99.90
19654;DHT22;9975;48.046;7.804;2023-11-19T07:21:36;12.70;99.90
19654;DHT22;9975;48.046;7.804;2023-11-19T07:24:12;12.80;99.90
19654;DHT22;9975;48.046;7.804;2023-11-19T07:56:06;12.80;99.90
19654;DHT22;9975;48.046;7.804;2023-11-19T07:58:32;12.90;99.90
19654;DHT22;9975;48.046;7.804;2023-11-19T08:00:58;13.00;99.90
19654;DHT22;9975;48.046;7.804;2023-11-19T08:03:23;13.00;99.90
19654;DHT22;9975;48.046;7.804;2023-11-19T08:05:49;13.00;99.90
19654;DHT22;9975;48.046;7.804;2023-11-19T08:08:15;13.00;99.90
19654;DHT22;9975;48.046;7.804;2023-11-19T08:10:41;13.00;99.90
19654;DHT22;9975;48.046;7.804;2023-11-19T08:13:06;13.00;99.90
19654;DHT22;9975;48.046;7.804;2023-11-19T08:15:33;13.00;99.90
19654;DHT22;9975;48.046;7.804;2023-11-19T08:17:58;13.10;99.90
19654;DHT22;9975;48.046;7.804;2023-11-19T08:20:24;13.10;99.90
19654;DHT22;9975;48.046;7.804;2023-11-19T08:22:49;13.10;99.90
19654;DHT22;9975;48.046;7.804;2023-11-19T08:25:15;13.10;99.90
19654;DHT22;9975;48.046;7.804;2023-11-19T08:27:41;13.10;99.90
19654;DHT22;9975;48.046;7.804;2023-11-19T08:30:07;13.20;99.90
19654;DHT22;9975;48.046;7.804;2023-11-19T08:32:34;13.20;99.90
19654;DHT22;9975;48.046;7.804;2023-11-19T08:35:00;13.20;99.90
19654;DHT22;9975;48.046;7.804;2023-11-19T08:37:25;13.20;99.90
19654;DHT22;9975;48.046;7.804;2023-11-19T08:39:51;13.20;99.90
19654;DHT22;9975;48.046;7.804;2023-11-19T08:42:17;13.20;99.90
19654;DHT22;9975;48.046;7.804;2023-11-19T08:44:43;13.30;99.90
19654;DHT22;9975;48.046;7.804;2023-11-19T08:47:12;13.30;99.90
19654;DHT22;9975;48.046;7.804;2023-11-19T08:49:39;13.20;99.90
19654;DHT22;9975;48.046;7.804;2023-11-19T08:52:05;13.30;99.90
19654;DHT22;9975;48.046;7.804;2023-11-19T08:54:33;13.30;99.90
19654;DHT22;9975;48.046;7.804;2023-11-19T08:56:59;13.30;99.90
19654;DHT22;9975;48.046;7.804;2023-11-19T08:59:25;13.30;99.90
19654;DHT22;9975;48.046;7.804;2023-11-19T09:01:50;13.30;99.90
19654;DHT22;9975;48.046;7.804;2023-11-19T09:04:16;13.30;99.90
19654;DHT22;9975;48.046;7.804;2023-11-19T09:06:48;13.30;99.90
19654;DHT22;9975;48.046;7.804;2023-11-19T09:09:14;13.30;99.90
19654;DHT22;9975;48.046;7.804;2023-11-19T09:11:40;13.40;99.90
19654;DHT22;9975;48.046;7.804;2023-11-19T09:14:06;13.40;99.90
19654;DHT22;9975;48.046;7.804;2023-11-19T09:16:31;13.40;99.90
19654;DHT22;9975;48.046;7.804;2023-11-19T09:18:57;13.40;99.90
19654;DHT22;9975;48.046;7.804;2023-11-19T09:21:27;13.40;99.90
19654;DHT22;9975;48.046;7.804;2023-11-19T09:23:55;13.40;99.90
19654;DHT22;9975;48.046;7.804;2023-11-19T09:26:20;13.40;99.90
19654;DHT22;9975;48.046;7.804;2023-11-19T09:28:46;13.40;99.90
19654;DHT22;9975;48.046;7.804;2023-11-19T09:31:15;13.40;99.90
19654;DHT22;9975;48.046;7.804;2023-11-19T09:33:42;13.40;99.90
19654;DHT22;9975;48.046;7.804;2023-11-19T09:36:08;13.40;99.90
19654;DHT22;9975;48.046;7.804;2023-11-19T09:38:34;13.40;99.90
19654;DHT22;9975;48.046;7.804;2023-11-19T09:41:06;13.40;99.90
19654;DHT22;9975;48.046;7.804;2023-11-19T09:43:37;13.40;99.90
19654;DHT22;9975;48.046;7.804;2023-11-19T09:46:09;13.40;99.90
19654;DHT22;9975;48.046;7.804;2023-11-19T09:48:37;13.40;99.90
19654;DHT22;9975;48.046;7.804;2023-11-19T09:51:07;13.50;99.90
19654;DHT22;9975;48.046;7.804;2023-11-19T09:53:37;13.50;99.90
19654;DHT22;9975;48.046;7.804;2023-11-19T09:56:03;13.60;99.90
19654;DHT22;9975;48.046;7.804;2023-11-19T09:58:30;13.60;99.90
19654;DHT22;9975;48.046;7.804;2023-11-19T10:00:57;13.80;99.90
19654;DHT22;9975;48.046;7.804;2023-11-19T10:03:35;13.80;99.90
19654;DHT22;9975;48.046;7.804;2023-11-19T10:06:05;13.80;99.90
19654;DHT22;9975;48.046;7.804;2023-11-19T10:08:32;13.80;99.90
19654;DHT22;9975;48.046;7.804;2023-11-19T10:10:57;13.80;99.90
19654;DHT22;9975;48.046;7.804;2023-11-19T10:13:28;13.80;99.90
19654;DHT22;9975;48.046;7.804;2023-11-19T10:15:56;13.80;99.90
19654;DHT22;9975;48.046;7.804;2023-11-19T10:18:26;13.90;99.90
19654;DHT22;9975;48.046;7.804;2023-11-19T10:20:52;13.80;99.90
19654;DHT22;9975;48.046;7.804;2023-11-19T10:23:18;13.80;99.90
19654;DHT22;9975;48.046;7.804;2023-11-19T10:25:44;13.80;99.90
19654;DHT22;9975;48.046;7.804;2023-11-19T10:28:10;13.80;99.90
19654;DHT22;9975;48.046;7.804;2023-11-19T10:30:35;13.80;99.90
19654;DHT22;9975;48.046;7.804;2023-11-19T10:33:12;13.80;99.90
19654;DHT22;9975;48.046;7.804;2023-11-19T10:35:56;13.90;99.90
19654;DHT22;9975;48.046;7.804;2023-11-19T10:38:23;14.00;99.90
19654;DHT22;9975;48.046;7.804;2023-11-19T10:40:53;14.00;99.90
19654;DHT22;9975;48.046;7.804;2023-11-19T10:43:21;14.00;99.90
19654;DHT22;9975;48.046;7.804;2023-11-19T10:45:50;14.10;99.90
19654;DHT22;9975;48.046;7.804;2023-11-19T10:48:16;14.20;99.90
19654;DHT22;9975;48.046;7.804;2023-11-19T10:50:43;14.20;99.90
19654;DHT22;9975;48.046;7.804;2023-11-19T10:53:11;14.10;99.90
19654;DHT22;9975;48.046;7.804;2023-11-19T10:55:39;14.10;99.90
19654;DHT22;9975;48.046;7.804;2023-11-19T11:00:43;14.00;99.90
19654;DHT22;9975;48.046;7.804;2023-11-19T11:03:19;14.00;99.90
19654;DHT22;9975;48.046;7.804;2023-11-19T11:05:49;14.10;99.90
19654;DHT22;9975;48.046;7.804;2023-11-19T11:08:16;14.10;99.90
19654;DHT22;9975;48.046;7.804;2023-11-19T11:10:53;14.20;99.90
19654;DHT22;9975;48.046;7.804;2023-11-19T11:13:19;14.20;99.90
19654;DHT22;9975;48.046;7.804;2023-11-19T11:15:49;14.20;99.90
19654;DHT22;9975;48.046;7.804;2023-11-19T11:18:16;14.20;99.90
19654;DHT22;9975;48.046;7.804;2023-11-19T13:46:05;14.40;99.90
19654;DHT22;9975;48.046;7.804;2023-11-19T13:48:31;16.20;99.90
19654;DHT22;9975;48.046;7.804;2023-11-19T13:50:56;16.30;99.90
19654;DHT22;9975;48.046;7.804;2023-11-19T13:53:22;16.30;99.90
19654;DHT22;9975;48.046;7.804;2023-11-19T13:55:49;16.30;99.90
19654;DHT22;9975;48.046;7.804;2023-11-19T13:58:15;16.40;99.90
19654;DHT22;9975;48.046;7.804;2023-11-19T14:00:41;16.30;99.90
19654;DHT22;9975;48.046;7.804;2023-11-19T14:03:09;16.20;99.90
19654;DHT22;9975;48.046;7.804;2023-11-19T14:05:38;16.10;99.90
19654;DHT22;9975;48.046;7.804;2023-11-19T14:08:04;16.20;99.90
19654;DHT22;9975;48.046;7.804;2023-11-19T14:10:37;16.20;99.90
19654;DHT22;9975;48.046;7.804;2023-11-19T14:13:04;16.40;99.90
19654;DHT22;9975;48.046;7.804;2023-11-19T14:15:30;16.50;99.90
19654;DHT22;9975;48.046;7.804;2023-11-19T14:17:56;16.50;99.90
19654;DHT22;9975;48.046;7.804;2023-11-19T14:20:21;16.20;99.90
19654;DHT22;9975;48.046;7.804;2023-11-19T14:22:47;16.20;99.90
19654;DHT22;9975;48.046;7.804;2023-11-19T14:25:15;16.20;99.90
19654;DHT22;9975;48.046;7.804;2023-11-19T14:27:43;16.20;99.90
19654;DHT22;9975;48.046;7.804;2023-11-19T14:30:10;16.20;99.90
19654;DHT22;9975;48.046;7.804;2023-11-19T14:32:37;16.30;99.90
19654;DHT22;9975;48.046;7.804;2023-11-19T14:35:04;16.30;99.90
19654;DHT22;9975;48.046;7.804;2023-11-19T14:37:30;16.40;99.90
19654;DHT22;9975;48.046;7.804;2023-11-19T14:39:59;16.20;99.90
19654;DHT22;9975;48.046;7.804;2023-11-19T14:42:25;16.40;99.90
19654;DHT22;9975;48.046;7.804;2023-11-19T14:44:51;16.40;99.90
19654;DHT22;9975;48.046;7.804;2023-11-19T14:47:39;16.40;99.90
19654;DHT22;9975;48.046;7.804;2023-11-19T14:50:05;16.50;99.90
19654;DHT22;9975;48.046;7.804;2023-11-19T14:52:32;16.40;99.90
19654;DHT22;9975;48.046;7.804;2023-11-19T14:54:57;16.20;99.90
19654;DHT22;9975;48.046;7.804;2023-11-19T14:57:24;16.20;99.90
19654;DHT22;9975;48.046;7.804;2023-11-19T14:59:50;16.20;99.90
19654;DHT22;9975;48.046;7.804;2023-11-19T15:02:15;16.00;99.90
19654;DHT22;9975;48.046;7.804;2023-11-19T15:04:41;15.80;99.90
19654;DHT22;9975;48.046;7.804;2023-11-19T15:07:09;15.80;99.90
19654;DHT22;9975;48.046;7.804;2023-11-19T15:09:35;15.60;99.90
19654;DHT22;9975;48.046;7.804;2023-11-19T15:12:02;15.60;99.90
19654;DHT22;9975;48.046;7.804;2023-11-19T15:14:27;15.40;99.90
19654;DHT22;9975;48.046;7.804;2023-11-19T15:16:54;15.30;99.90
19654;DHT22;9975;48.046;7.804;2023-11-19T15:19:20;15.10;99.90
19654;DHT22;9975;48.046;7.804;2023-11-19T15:58:19;14.90;99.90
19654;DHT22;9975;48.046;7.804;2023-11-19T16:00:45;14.00;99.90
19654;DHT22;9975;48.046;7.804;2023-11-19T16:03:13;13.90;99.90
19654;DHT22;9975;48.046;7.804;2023-11-19T16:05:38;13.90;99.90
19654;DHT22;9975;48.046;7.804;2023-11-19T16:08:04;13.80;99.90
19654;DHT22;9975;48.046;7.804;2023-11-19T16:10:31;13.80;99.90
19654;DHT22;9975;48.046;7.804;2023-11-19T16:12:56;13.80;99.90
19654;DHT22;9975;48.046;7.804;2023-11-19T16:15:22;13.80;99.90
19654;DHT22;9975;48.046;7.804;2023-11-19T16:17:48;13.70;99.90
19654;DHT22;9975;48.046;7.804;2023-11-19T16:20:14;13.70;99.90
19654;DHT22;9975;48.046;7.804;2023-11-19T16:22:40;13.70;99.90
19654;DHT22;9975;48.046;7.804;2023-11-19T16:25:08;13.60;99.90
19654;DHT22;9975;48.046;7.804;2023-11-19T16:27:34;13.60;99.90
19654;DHT22;9975;48.046;7.804;2023-11-19T16:29:59;13.60;99.90
19654;DHT22;9975;48.046;7.804;2023-11-19T16:32:26;13.60;99.90
19654;DHT22;9975;48.046;7.804;2023-11-19T16:34:51;13.50;99.90
19654;DHT22;9975;48.046;7.804;2023-11-19T16:37:18;13.50;99.90
19654;DHT22;9975;48.046;7.804;2023-11-19T16:39:46;13.50;99.90
19654;DHT22;9975;48.046;7.804;2023-11-19T16:42:13;13.50;99.90
19654;DHT22;9975;48.046;7.804;2023-11-19T16:44:39;13.50;99.90
19654;DHT22;9975;48.046;7.804;2023-11-19T16:47:06;13.50;99.90
19654;DHT22;9975;48.046;7.804;2023-11-19T16:49:34;13.40;99.90
19654;DHT22;9975;48.046;7.804;2023-11-19T16:52:00;13.50;99.90
19654;DHT22;9975;48.046;7.804;2023-11-19T16:54:26;13.40;99.90
19654;DHT22;9975;48.046;7.804;2023-11-19T16:56:53;13.40;99.90
19654;DHT22;9975;48.046;7.804;2023-11-19T16:59:19;13.40;99.90
19654;DHT22;9975;48.046;7.804;2023-11-19T17:01:44;13.40;99.90
19654;DHT22;9975;48.046;7.804;2023-11-19T17:04:11;13.40;99.90
19654;DHT22;9975;48.046;7.804;2023-11-19T17:06:38;13.40;99.90
19654;DHT22;9975;48.046;7.804;2023-11-19T17:09:05;13.40;99.90
19654;DHT22;9975;48.046;7.804;2023-11-19T17:11:30;13.40;99.90
19654;DHT22;9975;48.046;7.804;2023-11-19T17:13:56;13.40;99.90
19654;DHT22;9975;48.046;7.804;2023-11-19T17:16:21;13.40;99.90
19654;DHT22;9975;48.046;7.804;2023-11-19T17:18:47;13.40;99.90
19654;DHT22;9975;48.046;7.804;2023-11-19T17:21:13;13.40;99.90
19654;DHT22;9975;48.046;7.804;2023-11-19T17:23:39;13.30;99.90
19654;DHT22;9975;48.046;7.804;2023-11-19T17:26:05;13.30;99.90
19654;DHT22;9975;48.046;7.804;2023-11-19T17:28:31;13.30;99.90
19654;DHT22;9975;48.046;7.804;2023-11-19T17:30:59;13.30;99.90
19654;DHT22;9975;48.046;7.804;2023-11-19T17:33:25;13.30;99.90
19654;DHT22;9975;48.046;7.804;2023-11-19T17:35:51;13.30;99.90
19654;DHT22;9975;48.046;7.804;2023-11-19T17:38:17;13.30;99.90
19654;DHT22;9975;48.046;7.804;2023-11-19T17:40:44;13.30;99.90
19654;DHT22;9975;48.046;7.804;2023-11-19T17:43:09;13.30;99.90
19654;DHT22;9975;48.046;7.804;2023-11-19T17:45:35;13.30;99.90
19654;DHT22;9975;48.046;7.804;2023-11-19T17:48:01;13.30;99.90
19654;DHT22;9975;48.046;7.804;2023-11-19T17:50:27;13.30;99.90
19654;DHT22;9975;48.046;7.804;2023-11-19T17:52:53;13.30;99.90
19654;DHT22;9975;48.046;7.804;2023-11-19T17:55:19;13.20;99.90
19654;DHT22;9975;48.046;7.804;2023-11-19T17:57:45;13.20;99.90
19654;DHT22;9975;48.046;7.804;2023-11-19T18:00:12;13.20;99.90
19654;DHT22;9975;48.046;7.804;2023-11-19T18:02:45;13.20;99.90
19654;DHT22;9975;48.046;7.804;2023-11-19T18:05:13;13.20;99.90
19654;DHT22;9975;48.046;7.804;2023-11-19T18:07:39;13.20;99.90
19654;DHT22;9975;48.046;7.804;2023-11-19T18:10:10;13.20;99.90
19654;DHT22;9975;48.046;7.804;2023-11-19T18:12:39;13.10;99.90
19654;DHT22;9975;48.046;7.804;2023-11-19T18:15:06;13.20;99.90
19654;DHT22;9975;48.046;7.804;2023-11-19T18:17:32;13.20;99.90
19654;DHT22;9975;48.046;7.804;2023-11-19T18:19:58;13.20;99.90
19654;DHT22;9975;48.046;7.804;2023-11-19T18:22:25;13.20;99.90
19654;DHT22;9975;48.046;7.804;2023-11-19T18:24:50;13.20;99.90
19654;DHT22;9975;48.046;7.804;2023-11-19T18:27:16;13.20;99.90
19654;DHT22;9975;48.046;7.804;2023-11-19T18:29:44;13.20;99.90
19654;DHT22;9975;48.046;7.804;2023-11-19T18:32:12;13.10;99.90
19654;DHT22;9975;48.046;7.804;2023-11-19T18:34:39;13.10;99.90
19654;DHT22;9975;48.046;7.804;2023-11-19T18:37:07;13.10;99.90
19654;DHT22;9975;48.046;7.804;2023-11-19T18:39:42;13.10;99.90
19654;DHT22;9975;48.046;7.804;2023-11-19T18:42:08;13.10;99.90
19654;DHT22;9975;48.046;7.804;2023-11-19T18:44:34;13.10;99.90
19654;DHT22;9975;48.046;7.804;2023-11-19T18:46:59;13.10;99.90
19654;DHT22;9975;48.046;7.804;2023-11-19T18:49:25;13.10;99.90
19654;DHT22;9975;48.046;7.804;2023-11-19T18:51:52;13.10;99.90
19654;DHT22;9975;48.046;7.804;2023-11-19T18:54:17;13.10;99.90
19654;DHT22;9975;48.046;7.804;2023-11-19T18:56:46;13.10;99.90
19654;DHT22;9975;48.046;7.804;2023-11-19T18:59:11;13.10;99.90
19654;DHT22;9975;48.046;7.804;2023-11-19T19:01:39;13.10;99.90
19654;DHT22;9975;48.046;7.804;2023-11-19T19:04:07;13.20;99.90
19654;DHT22;9975;48.046;7.804;2023-11-19T19:06:35;13.20;99.90
19654;DHT22;9975;48.046;7.804;2023-11-19T19:09:02;13.10;99.90
19654;DHT22;9975;48.046;7.804;2023-11-19T19:11:29;13.20;99.90
19654;DHT22;9975;48.046;7.804;2023-11-19T19:13:54;13.10;99.90
19654;DHT22;9975;48.046;7.804;2023-11-19T19:16:22;13.10;99.90
19654;DHT22;9975;48.046;7.804;2023-11-19T19:18:47;13.20;99.90
19654;DHT22;9975;48.046;7.804;2023-11-19T19:21:14;13.20;99.90
19654;DHT22;9975;48.046;7.804;2023-11-19T19:23:40;13.20;99.90
19654;DHT22;9975;48.046;7.804;2023-11-19T19:26:06;13.20;99.90
19654;DHT22;9975;48.046;7.804;2023-11-19T19:28:32;13.20;99.90
19654;DHT22;9975;48.046;7.804;2023-11-19T19:31:03;13.10;99.90
19654;DHT22;9975;48.046;7.804;2023-11-19T19:33:29;13.10;99.90
19654;DHT22;9975;48.046;7.804;2023-11-19T19:35:54;13.10;99.90
19654;DHT22;9975;48.046;7.804;2023-11-19T19:38:20;13.10;99.90
19654;DHT22;9975;48.046;7.804;2023-11-19T19:40:47;13.00;99.90
19654;DHT22;9975;48.046;7.804;2023-11-19T19:43:12;13.00;99.90
19654;DHT22;9975;48.046;7.804;2023-11-19T19:45:38;13.00;99.90
19654;DHT22;9975;48.046;7.804;2023-11-19T19:48:04;13.00;99.90
19654;DHT22;9975;48.046;7.804;2023-11-19T19:50:38;12.90;99.90
19654;DHT22;9975;48.046;7.804;2023-11-19T19:53:04;12.90;99.90
19654;DHT22;9975;48.046;7.804;2023-11-19T19:55:29;12.90;99.90
19654;DHT22;9975;48.046;7.804;2023-11-19T19:57:55;12.90;99.90
19654;DHT22;9975;48.046;7.804;2023-11-19T20:00:21;12.90;99.90
19654;DHT22;9975;48.046;7.804;2023-11-19T20:02:47;12.90;99.90
19654;DHT22;9975;48.046;7.804;2023-11-19T20:05:12;12.90;99.90
19654;DHT22;9975;48.046;7.804;2023-11-19T20:07:42;12.90;99.90
19654;DHT22;9975;48.046;7.804;2023-11-19T20:10:08;12.80;99.90
19654;DHT22;9975;48.046;7.804;2023-11-19T20:12:37;12.80;99.90
19654;DHT22;9975;48.046;7.804;2023-11-19T20:15:05;12.80;99.90
19654;DHT22;9975;48.046;7.804;2023-11-19T20:17:32;12.80;99.90
19654;DHT22;9975;48.046;7.804;2023-11-19T20:19:57;12.80;99.90
19654;DHT22;9975;48.046;7.804;2023-11-19T20:22:23;12.80;99.90
19654;DHT22;9975;48.046;7.804;2023-11-19T20:24:49;12.80;99.90
19654;DHT22;9975;48.046;7.804;2023-11-19T20:27:15;12.80;99.90
19654;DHT22;9975;48.046;7.804;2023-11-19T20:29:48;12.80;99.90
19654;DHT22;9975;48.046;7.804;2023-11-19T20:32:13;12.80;99.90
19654;DHT22;9975;48.046;7.804;2023-11-19T20:34:40;12.80;99.90
19654;DHT22;9975;48.046;7.804;2023-11-19T20:37:05;12.80;99.90
19654;DHT22;9975;48.046;7.804;2023-11-19T20:39:32;12.80;99.90
19654;DHT22;9975;48.046;7.804;2023-11-19T20:41:58;12.80;99.90
19654;DHT22;9975;48.046;7.804;2023-11-19T20:44:24;12.80;99.90
19654;DHT22;9975;48.046;7.804;2023-11-19T20:46:49;12.90;99.90
19654;DHT22;9975;48.046;7.804;2023-11-19T20:49:15;12.90;99.90
19654;DHT22;9975;48.046;7.804;2023-11-19T20:51:42;12.80;99.90
19654;DHT22;9975;48.046;7.804;2023-11-19T20:54:08;12.80;99.90
19654;DHT22;9975;48.046;7.804;2023-11-19T20:56:35;12.90;99.90
19654;DHT22;9975;48.046;7.804;2023-11-19T20:59:01;12.80;99.90
19654;DHT22;9975;48.046;7.804;2023-11-19T21:01:26;12.90;99.90
19654;DHT22;9975;48.046;7.804;2023-11-19T21:03:52;12.80;99.90
19654;DHT22;9975;48.046;7.804;2023-11-19T21:06:18;12.90;99.90
19654;DHT22;9975;48.046;7.804;2023-11-19T21:08:45;12.90;99.90
19654;DHT22;9975;48.046;7.804;2023-11-19T21:11:10;12.80;99.90
19654;DHT22;9975;48.046;7.804;2023-11-19T21:13:36;12.80;99.90
19654;DHT22;9975;48.046;7.804;2023-11-19T21:16:02;12.80;99.90
19654;DHT22;9975;48.046;7.804;2023-11-19T21:18:28;12.80;99.90
19654;DHT22;9975;48.046;7.804;2023-11-19T21:20:55;12.80;99.90
19654;DHT22;9975;48.046;7.804;2023-11-19T21:23:20;12.80;99.90
19654;DHT22;9975;48.046;7.804;2023-11-19T21:25:50;12.80;99.90
19654;DHT22;9975;48.046;7.804;2023-11-19T21:28:15;12.80;99.90
19654;DHT22;9975;48.046;7.804;2023-11-19T21:30:41;12.80;99.90
19654;DHT22;9975;48.046;7.804;2023-11-19T21:33:07;12.80;99.90
19654;DHT22;9975;48.046;7.804;2023-11-19T21:35:34;12.80;99.90
19654;DHT22;9975;48.046;7.804;2023-11-19T21:37:59;12.80;99.90
19654;DHT22;9975;48.046;7.804;2023-11-19T21:40:25;12.80;99.90
19654;DHT22;9975;48.046;7.804;2023-11-19T21:42:50;12.80;99.90
19654;DHT22;9975;48.046;7.804;2023-11-19T21:45:17;12.70;99.90
19654;DHT22;9975;48.046;7.804;2023-11-19T21:47:43;12.70;99.90
19654;DHT22;9975;48.046;7.804;2023-11-19T21:50:08;12.70;99.90
19654;DHT22;9975;48.046;7.804;2023-11-19T21:52:34;12.70;99.90
19654;DHT22;9975;48.046;7.804;2023-11-19T21:55:01;12.70;99.90
19654;DHT22;9975;48.046;7.804;2023-11-19T21:57:28;12.70;99.90
19654;DHT22;9975;48.046;7.804;2023-11-19T21:59:55;12.60;99.90
19654;DHT22;9975;48.046;7.804;2023-11-19T22:02:25;12.70;99.90
19654;DHT22;9975;48.046;7.804;2023-11-19T22:04:51;12.60;99.90
19654;DHT22;9975;48.046;7.804;2023-11-19T22:07:17;12.70;99.90
19654;DHT22;9975;48.046;7.804;2023-11-19T22:09:42;12.60;99.90
19654;DHT22;9975;48.046;7.804;2023-11-19T22:12:08;12.60;99.90
19654;DHT22;9975;48.046;7.804;2023-11-19T22:14:36;12.60;99.90
19654;DHT22;9975;48.046;7.804;2023-11-19T22:17:02;12.60;99.90
19654;DHT22;9975;48.046;7.804;2023-11-19T22:19:29;12.60;99.90
19654;DHT22;9975;48.046;7.804;2023-11-19T22:21:55;12.50;99.90
19654;DHT22;9975;48.046;7.804;2023-11-19T22:24:20;12.50;99.90
19654;DHT22;9975;48.046;7.804;2023-11-19T22:26:46;12.50;99.90
19654;DHT22;9975;48.046;7.804;2023-11-19T22:29:12;12.50;99.90
19654;DHT22;9975;48.046;7.804;2023-11-19T22:31:38;12.50;99.90
19654;DHT22;9975;48.046;7.804;2023-11-19T22:34:03;12.50;99.90
19654;DHT22;9975;48.046;7.804;2023-11-19T22:36:30;12.50;99.90
19654;DHT22;9975;48.046;7.804;2023-11-19T22:38:55;12.50;99.90
19654;DHT22;9975;48.046;7.804;2023-11-19T22:41:22;12.50;99.90
19654;DHT22;9975;48.046;7.804;2023-11-19T22:43:47;12.50;99.90
19654;DHT22;9975;48.046;7.804;2023-11-19T22:46:13;12.50;99.90
19654;DHT22;9975;48.046;7.804;2023-11-19T22:48:39;12.50;99.90
19654;DHT22;9975;48.046;7.804;2023-11-19T22:51:04;12.50;99.90
19654;DHT22;9975;48.046;7.804;2023-11-19T22:53:30;12.50;99.90
19654;DHT22;9975;48.046;7.804;2023-11-19T22:55:56;12.50;99.90
19654;DHT22;9975;48.046;7.804;2023-11-19T22:58:22;12.60;99.90
19654;DHT22;9975;48.046;7.804;2023-11-19T23:00:47;12.60;99.90
19654;DHT22;9975;48.046;7.804;2023-11-19T23:03:14;12.60;99.90
19654;DHT22;9975;48.046;7.804;2023-11-19T23:05:39;12.60;99.90
19654;DHT22;9975;48.046;7.804;2023-11-19T23:08:05;12.60;99.90
19654;DHT22;9975;48.046;7.804;2023-11-19T23:10:31;12.70;99.90
19654;DHT22;9975;48.046;7.804;2023-11-19T23:12:58;12.70;99.90
19654;DHT22;9975;48.046;7.804;2023-11-19T23:15:25;12.70;99.90
19654;DHT22;9975;48.046;7.804;2023-11-19T23:17:51;12.70;99.90
19654;DHT22;9975;48.046;7.804;2023-11-19T23:20:17;12.70;99.90
19654;DHT22;9975;48.046;7.804;2023-11-19T23:22:43;12.70;99.90
19654;DHT22;9975;48.046;7.804;2023-11-19T23:25:09;12.70;99.90
19654;DHT22;9975;48.046;7.804;2023-11-19T23:27:36;12.70;99.90
19654;DHT22;9975;48.046;7.804;2023-11-19T23:30:03;12.60;99.90
19654;DHT22;9975;48.046;7.804;2023-11-19T23:32:29;12.70;99.90
19654;DHT22;9975;48.046;7.804;2023-11-19T23:34:55;12.70;99.90
